Accueil
METAR-TAF:

METAR-TAF

Aéroports :

Keetmanshoop, Namibie

latitude: 26-32S, longitude: 018-07E, altitude: 1067 m

Observation

Le bulletin a été fait il y a 38 minutes, à 11:00 UTC
Vent 10 kt de nord
Température 25°C
Humidité 17%
Pression 1026 hPa
Visibilité 10 km ou plus
pas de nuages en-dessous de 1500 mètres et pas de cumulonimbus.

METAR: FYKT 141100Z 01010KT CAVOK 25/M02 Q1026

Heure: 13:38 (11:38 UTC)

Prévision

Le bulletin a été fait il y a 1 heure et 38 minutes, à 10:00 UTC
Prévision valable du 14 à 12 UTC au 15 à 12 UTC
Vent 12 kt de nord
Visibilité 10 km ou plus
pas de nuages en-dessous de 1500 mètres et pas de cumulonimbus.

TAF: FYKT 141000Z 1412/1512 36012KT CAVOK

Observations et prévisions météorologiques de plus de 4000 aéroports (messages METAR et TAF).

Les stations disponibles sont représentées par des disques jaunes et rouges sur la carte.

Passer la souris dessus pour voir le nom de la station.

Cliquer dessus pour voir les observations et prévisions météorologiques.

Pour changer de carte: cliquez sur les boutons verts avec une croix noire pour zoomer, sur le bouton vert avec un tiret pour effectuer un zoom arrière, ou sur les flèches vertes pour les cartes adjacentes.


METAR-TAF: